Time;durP1;ratioP1;P1;durP2;ratioP2;P2;SDS_P1;SDS_P2;PMS_P1;PMS_P2;Temp;Humidity;BMP_temperature;BMP_pressure;BME280_temperature;BME280_humidity;BME280_pressure;Samples;Min_cycle;Max_cycle;Signal;HPM_P1;HPM_P2
2022/01/03 00:00:11;;;;;;;22.77;3.45;;;10.10;99.90;;;;;;5017075;28;20030;-71
2022/01/03 00:02:37;;;;;;;25.60;3.63;;;10.10;99.90;;;;;;5021956;28;20018;-72
2022/01/03 00:05:03;;;;;;;22.90;4.03;;;10.10;99.90;;;;;;5031689;28;20079;-72
2022/01/03 00:07:29;;;;;;;20.48;4.00;;;10.00;99.90;;;;;;5024390;28;20496;-75
2022/01/03 00:09:57;;;;;;;25.30;3.58;;;10.00;99.90;;;;;;5031386;28;20037;-74
2022/01/03 00:12:23;;;;;;;28.40;4.78;;;10.00;99.90;;;;;;5030578;28;20095;-74
2022/01/03 00:14:49;;;;;;;26.30;4.18;;;10.00;99.90;;;;;;5035490;28;20113;-71
2022/01/03 00:17:15;;;;;;;26.08;3.75;;;10.00;99.90;;;;;;5036825;28;20032;-72
2022/01/03 00:19:40;;;;;;;29.00;4.53;;;10.00;99.90;;;;;;5032200;28;20033;-75
2022/01/03 00:22:10;;;;;;;25.45;3.30;;;10.00;99.90;;;;;;5032248;28;20030;-74
2022/01/03 00:24:37;;;;;;;33.05;4.38;;;10.00;99.90;;;;;;5024560;28;20033;-72
2022/01/03 00:27:10;;;;;;;23.38;3.60;;;10.00;99.90;;;;;;5030949;28;21660;-72
2022/01/03 00:29:47;;;;;;;27.98;4.15;;;10.00;99.90;;;;;;5024235;28;20087;-71
2022/01/03 00:32:13;;;;;;;36.08;4.82;;;10.00;99.90;;;;;;5031897;28;20032;-74
2022/01/03 00:34:40;;;;;;;27.38;4.10;;;10.00;99.90;;;;;;5025087;28;20040;-71
2022/01/03 00:37:08;;;;;;;22.70;4.00;;;10.00;99.90;;;;;;5029661;28;20043;-72
2022/01/03 00:39:34;;;;;;;27.50;4.25;;;10.00;99.90;;;;;;5032033;28;20029;-72
2022/01/03 00:42:00;;;;;;;26.38;3.60;;;10.00;99.90;;;;;;5028978;28;20113;-70
2022/01/03 00:44:26;;;;;;;20.35;3.08;;;9.90;99.90;;;;;;5028492;28;20123;-71
2022/01/03 00:46:53;;;;;;;26.65;3.78;;;10.00;99.90;;;;;;5030137;28;20252;-71
2022/01/03 00:49:19;;;;;;;27.65;3.90;;;10.00;99.90;;;;;;5031224;28;20038;-70
2022/01/03 00:51:45;;;;;;;28.63;4.65;;;10.00;99.90;;;;;;5031095;28;20041;-72
2022/01/03 00:54:11;;;;;;;23.80;4.32;;;10.00;99.90;;;;;;5031831;28;20037;-72
2022/01/03 00:56:47;;;;;;;19.67;2.72;;;10.00;99.90;;;;;;5031869;28;20037;-71
2022/01/03 00:59:46;;;;;;;20.40;3.85;;;10.00;99.90;;;;;;5022845;28;20537;-73
2022/01/03 01:02:13;;;;;;;25.77;4.20;;;10.00;99.90;;;;;;5027644;28;20157;-74
2022/01/03 01:04:44;;;;;;;27.00;3.83;;;10.00;99.90;;;;;;5031537;28;20260;-71
2022/01/03 01:07:11;;;;;;;35.58;4.68;;;10.00;99.90;;;;;;5031140;28;20526;-72
2022/01/03 01:09:37;;;;;;;23.48;3.25;;;10.00;99.90;;;;;;5031516;28;20041;-73
2022/01/03 01:12:06;;;;;;;30.50;5.13;;;10.00;99.90;;;;;;5031747;28;20076;-73
2022/01/03 01:14:32;;;;;;;26.73;4.20;;;9.90;99.90;;;;;;5022697;28;20390;-73
2022/01/03 01:16:57;;;;;;;25.60;3.70;;;10.00;99.90;;;;;;5028511;28;20033;-72
2022/01/03 01:19:26;;;;;;;27.48;3.92;;;10.00;99.90;;;;;;5034263;28;20033;-73
2022/01/03 01:21:52;;;;;;;22.65;4.03;;;10.00;99.90;;;;;;5040566;28;20025;-71
2022/01/03 01:24:21;;;;;;;21.73;3.85;;;10.00;99.90;;;;;;5024604;28;20061;-73
2022/01/03 01:29:36;;;;;;;26.80;3.30;;;10.00;99.90;;;;;;5017468;28;20063;-70
2022/01/03 01:32:03;;;;;;;25.23;3.88;;;10.00;99.90;;;;;;5022295;28;20072;-72
2022/01/03 01:34:32;;;;;;;24.63;3.80;;;10.00;99.90;;;;;;5024689;28;20025;-70
2022/01/03 01:37:00;;;;;;;27.45;5.60;;;10.00;99.90;;;;;;5023347;28;20034;-72
2022/01/03 01:39:28;;;;;;;33.35;5.43;;;9.90;99.90;;;;;;5030344;28;20037;-73
2022/01/03 01:41:58;;;;;;;33.10;4.78;;;9.90;99.90;;;;;;5027668;28;20120;-71
2022/01/03 01:44:24;;;;;;;31.58;4.00;;;9.90;99.90;;;;;;5035324;28;20029;-73
2022/01/03 01:46:55;;;;;;;26.83;3.85;;;9.90;99.90;;;;;;5035401;28;20033;-73
2022/01/03 01:49:23;;;;;;;26.65;4.15;;;9.90;99.90;;;;;;5035228;28;20395;-72
2022/01/03 01:51:58;;;;;;;30.33;4.70;;;9.90;99.90;;;;;;5032639;28;20040;-71
2022/01/03 01:54:34;;;;;;;23.10;3.85;;;9.90;99.90;;;;;;5029011;28;20392;-74
2022/01/03 01:57:06;;;;;;;26.65;3.90;;;9.90;99.90;;;;;;5034508;28;20037;-73
2022/01/03 01:59:34;;;;;;;21.80;3.90;;;9.90;99.90;;;;;;5035180;28;20491;-71
2022/01/03 02:02:14;;;;;;;32.80;4.85;;;9.90;99.90;;;;;;5023575;28;20030;-74
2022/01/03 02:04:46;;;;;;;29.75;4.20;;;9.90;99.90;;;;;;5015620;28;20084;-72
2022/01/03 02:07:39;;;;;;;29.67;5.53;;;9.90;99.90;;;;;;5015703;28;20022;-72
2022/01/03 02:10:10;;;;;;;25.30;3.72;;;9.90;99.90;;;;;;5031081;28;20552;-72
2022/01/03 02:12:38;;;;;;;26.25;4.85;;;9.90;99.90;;;;;;5031436;28;20117;-73
2022/01/03 02:15:09;;;;;;;28.38;4.82;;;9.90;99.90;;;;;;5024776;28;20411;-71
2022/01/03 02:17:34;;;;;;;34.47;5.55;;;9.90;99.90;;;;;;5033184;28;20034;-71
2022/01/03 02:20:09;;;;;;;30.00;3.85;;;9.80;99.90;;;;;;5027735;28;20044;-72
2022/01/03 02:22:39;;;;;;;40.28;6.25;;;9.80;99.90;;;;;;5035147;28;20487;-74
2022/01/03 02:25:07;;;;;;;30.63;4.97;;;9.80;99.90;;;;;;5035265;28;20025;-71
2022/01/03 02:27:34;;;;;;;31.05;4.28;;;9.90;99.90;;;;;;5034519;28;20021;-74
2022/01/03 02:30:00;;;;;;;36.55;4.57;;;9.90;99.90;;;;;;5034353;28;20103;-71
2022/01/03 02:32:26;;;;;;;30.63;4.38;;;9.90;99.90;;;;;;5034897;28;20021;-73
2022/01/03 02:34:51;;;;;;;32.13;4.10;;;9.90;99.90;;;;;;5035017;28;20034;-72
2022/01/03 02:37:17;;;;;;;37.40;4.22;;;9.90;99.90;;;;;;5035101;28;20036;-72
2022/01/03 02:39:43;;;;;;;30.98;4.05;;;9.90;99.90;;;;;;5034984;28;20780;-72
2022/01/03 02:42:09;;;;;;;30.60;4.95;;;9.90;99.90;;;;;;5034474;28;20033;-70
2022/01/03 02:44:35;;;;;;;30.13;5.05;;;9.90;99.90;;;;;;5034751;28;20080;-72
2022/01/03 02:47:01;;;;;;;33.20;4.40;;;10.00;99.90;;;;;;5034878;28;20036;-72
2022/01/03 02:49:26;;;;;;;31.40;5.18;;;9.90;99.90;;;;;;5034368;28;20037;-70
2022/01/03 02:51:52;;;;;;;35.55;5.82;;;9.90;99.90;;;;;;5034573;28;20045;-71
2022/01/03 02:54:17;;;;;;;32.05;4.68;;;9.90;99.90;;;;;;5034311;28;20033;-73
2022/01/03 02:56:43;;;;;;;37.78;5.85;;;9.90;99.90;;;;;;5034164;28;20152;-72
2022/01/03 02:59:18;;;;;;;24.05;4.18;;;9.90;99.90;;;;;;5034447;28;20033;-75
2022/01/03 03:01:45;;;;;;;28.13;5.30;;;9.90;99.90;;;;;;5034636;28;20029;-71
2022/01/03 03:04:10;;;;;;;32.90;5.07;;;9.90;99.90;;;;;;5034496;28;20423;-72
2022/01/03 03:06:36;;;;;;;33.38;4.65;;;9.90;99.90;;;;;;5034406;28;20028;-72
2022/01/03 03:09:07;;;;;;;31.40;4.63;;;9.90;99.90;;;;;;5034340;28;20064;-73
2022/01/03 03:11:35;;;;;;;31.37;4.40;;;9.90;99.90;;;;;;5034214;28;20029;-73
2022/01/03 03:14:01;;;;;;;31.45;4.45;;;9.90;99.90;;;;;;5034172;28;20287;-72
2022/01/03 03:16:27;;;;;;;34.65;4.72;;;9.90;99.90;;;;;;5034251;28;20029;-72
2022/01/03 03:18:53;;;;;;;35.97;5.40;;;9.90;99.90;;;;;;5032758;28;20048;-72
2022/01/03 03:21:19;;;;;;;37.72;5.68;;;9.90;99.90;;;;;;5034236;28;20030;-74
2022/01/03 03:23:44;;;;;;;30.08;4.38;;;9.90;99.90;;;;;;5034574;28;20031;-72
2022/01/03 03:26:11;;;;;;;24.17;5.05;;;9.90;99.90;;;;;;5033655;28;20111;-72
2022/01/03 03:28:37;;;;;;;36.80;4.72;;;9.90;99.90;;;;;;5033702;28;20064;-69
2022/01/03 03:31:03;;;;;;;26.05;4.72;;;9.90;99.90;;;;;;5034036;28;20022;-74
2022/01/03 03:33:29;;;;;;;35.55;5.32;;;9.90;99.90;;;;;;5034107;28;20072;-73
2022/01/03 03:35:56;;;;;;;24.85;4.43;;;9.90;99.90;;;;;;5033868;28;20063;-74
2022/01/03 03:38:23;;;;;;;39.47;6.10;;;9.90;99.90;;;;;;5033566;28;20040;-73
2022/01/03 03:40:49;;;;;;;35.40;4.63;;;9.90;99.90;;;;;;5033457;28;20028;-71
2022/01/03 03:43:16;;;;;;;35.13;4.97;;;9.90;99.90;;;;;;5033747;28;20057;-71
2022/01/03 03:45:42;;;;;;;27.15;4.07;;;9.90;99.90;;;;;;5033339;28;20029;-73
2022/01/03 03:48:08;;;;;;;28.77;4.78;;;9.90;99.90;;;;;;5032251;28;20041;-69
2022/01/03 03:50:34;;;;;;;31.35;4.50;;;9.90;99.90;;;;;;5033902;28;20030;-73
2022/01/03 03:52:59;;;;;;;32.40;5.10;;;9.90;99.90;;;;;;5032837;28;20033;-72
2022/01/03 03:55:25;;;;;;;26.45;4.63;;;9.90;99.90;;;;;;5032529;28;20029;-73
2022/01/03 03:57:51;;;;;;;23.50;4.32;;;9.90;99.90;;;;;;5032315;28;20032;-72
2022/01/03 04:00:19;;;;;;;32.70;5.80;;;9.90;99.90;;;;;;5032940;28;20025;-70
2022/01/03 04:02:45;;;;;;;31.83;5.22;;;9.90;99.90;;;;;;5031596;28;20467;-71
2022/01/03 04:05:11;;;;;;;26.00;4.32;;;9.90;99.90;;;;;;5033214;28;20036;-71
2022/01/03 04:07:37;;;;;;;31.23;5.18;;;9.90;99.90;;;;;;5033471;28;20021;-69
2022/01/03 04:10:05;;;;;;;29.52;5.00;;;9.90;99.90;;;;;;5033681;28;20028;-71
2022/01/03 04:12:31;;;;;;;37.42;5.70;;;9.90;99.90;;;;;;5033338;28;20034;-70
2022/01/03 04:14:57;;;;;;;30.27;4.68;;;9.90;99.90;;;;;;5033318;28;20042;-71
2022/01/03 04:17:22;;;;;;;33.92;4.78;;;9.90;99.90;;;;;;5032860;28;20549;-72
2022/01/03 04:19:49;;;;;;;34.17;5.28;;;9.90;99.90;;;;;;5033203;28;20474;-72
2022/01/03 04:22:14;;;;;;;34.72;6.15;;;9.90;99.90;;;;;;5031767;28;20116;-69
2022/01/03 04:24:40;;;;;;;34.40;5.05;;;9.90;99.90;;;;;;5031314;28;20179;-73
2022/01/03 04:27:06;;;;;;;22.27;4.63;;;9.90;99.90;;;;;;5033174;28;20025;-71
2022/01/03 04:29:32;;;;;;;31.73;5.07;;;9.90;99.90;;;;;;5032898;28;20041;-71
2022/01/03 04:31:57;;;;;;;37.25;4.72;;;9.90;99.90;;;;;;5032684;28;20029;-69
2022/01/03 04:34:23;;;;;;;30.58;5.30;;;9.90;99.90;;;;;;5031498;28;20030;-72
2022/01/03 04:36:49;;;;;;;32.42;5.18;;;9.80;99.90;;;;;;5032592;28;20057;-73
2022/01/03 04:39:14;;;;;;;25.73;4.63;;;9.80;99.90;;;;;;5032638;28;20033;-73
2022/01/03 04:41:40;;;;;;;34.30;5.80;;;9.80;99.90;;;;;;5032584;28;20378;-75
2022/01/03 04:44:06;;;;;;;38.25;4.88;;;9.80;99.90;;;;;;5032617;28;20021;-74
2022/01/03 04:46:36;;;;;;;33.30;4.88;;;9.90;99.90;;;;;;5032717;28;20034;-70
2022/01/03 04:49:05;;;;;;;36.05;5.68;;;9.90;99.90;;;;;;5032618;28;20041;-72
2022/01/03 04:51:31;;;;;;;35.08;5.22;;;9.90;99.90;;;;;;5030890;28;20049;-73
2022/01/03 04:53:56;;;;;;;38.65;5.03;;;9.90;99.90;;;;;;5031406;28;20025;-73
2022/01/03 04:56:22;;;;;;;34.25;5.97;;;9.90;99.90;;;;;;5032656;28;20360;-72
2022/01/03 04:58:48;;;;;;;30.45;4.65;;;9.90;99.90;;;;;;5031369;28;20025;-71
2022/01/03 05:01:14;;;;;;;35.08;6.03;;;9.90;99.90;;;;;;5031252;28;20532;-70
2022/01/03 05:03:39;;;;;;;32.80;4.38;;;9.90;99.90;;;;;;5032495;28;20044;-71
2022/01/03 05:06:05;;;;;;;34.78;5.55;;;9.90;99.90;;;;;;5032271;28;20395;-71
2022/01/03 05:08:32;;;;;;;35.65;4.13;;;9.80;99.90;;;;;;5031821;28;20495;-70
2022/01/03 05:11:00;;;;;;;35.88;7.28;;;9.80;99.90;;;;;;5031154;28;20033;-70
2022/01/03 05:13:30;;;;;;;43.40;7.97;;;9.80;99.90;;;;;;5032083;28;20042;-73
2022/01/03 05:15:57;;;;;;;40.97;5.68;;;9.80;99.90;;;;;;5032787;28;20040;-72
2022/01/03 05:18:23;;;;;;;30.70;4.97;;;9.80;99.90;;;;;;5036699;28;20160;-71
2022/01/03 05:20:49;;;;;;;42.38;4.97;;;9.80;99.90;;;;;;5036625;28;20100;-72
2022/01/03 05:23:14;;;;;;;33.33;4.85;;;9.80;99.90;;;;;;5036436;28;20356;-70
2022/01/03 05:25:40;;;;;;;29.60;5.13;;;9.80;99.90;;;;;;5036025;28;20037;-71
2022/01/03 05:28:06;;;;;;;29.33;4.90;;;9.80;99.90;;;;;;5036394;28;20141;-71
2022/01/03 05:30:31;;;;;;;30.17;5.20;;;9.80;99.90;;;;;;5036455;28;20041;-72
2022/01/03 05:32:57;;;;;;;43.88;5.57;;;9.70;99.90;;;;;;5034901;28;20025;-67
2022/01/03 05:35:23;;;;;;;41.10;6.40;;;9.70;99.90;;;;;;5036099;28;20037;-71
2022/01/03 05:37:48;;;;;;;46.47;5.53;;;9.80;99.90;;;;;;5036385;28;20065;-72
2022/01/03 05:40:14;;;;;;;31.10;5.07;;;9.70;99.90;;;;;;5035757;28;20104;-71
2022/01/03 05:42:41;;;;;;;31.65;5.13;;;9.70;99.90;;;;;;5036027;28;20474;-73
2022/01/03 05:45:07;;;;;;;38.30;7.07;;;9.80;99.90;;;;;;5035948;28;20033;-72
2022/01/03 05:47:33;;;;;;;35.38;4.90;;;9.70;99.90;;;;;;5035534;28;20022;-69
2022/01/03 05:49:59;;;;;;;37.72;5.47;;;9.70;99.90;;;;;;5035479;28;20530;-69
2022/01/03 05:52:25;;;;;;;38.97;5.47;;;9.80;99.90;;;;;;5035839;28;20022;-71
2022/01/03 05:54:52;;;;;;;39.47;4.70;;;9.80;99.90;;;;;;5035757;28;20041;-74
2022/01/03 05:57:18;;;;;;;30.65;5.07;;;9.80;99.90;;;;;;5035882;28;20107;-73
2022/01/03 05:59:44;;;;;;;31.92;4.82;;;9.80;99.90;;;;;;5036334;28;20029;-71
2022/01/03 06:02:09;;;;;;;36.65;5.78;;;9.80;99.90;;;;;;5035611;28;20034;-71
2022/01/03 06:04:52;;;;;;;30.80;5.53;;;9.70;99.90;;;;;;5034293;28;20382;-71
2022/01/03 06:07:18;;;;;;;;;;;9.80;99.90;;;;;;5036245;28;20065;-73
2022/01/03 06:09:43;;;;;;;34.58;4.45;;;9.70;99.90;;;;;;5035603;28;19979;-73
2022/01/03 06:12:09;;;;;;;37.38;5.72;;;9.70;99.90;;;;;;5035668;28;20447;-72
2022/01/03 06:14:36;;;;;;;47.15;6.93;;;9.70;99.90;;;;;;5035555;28;20041;-72
2022/01/03 06:17:03;;;;;;;34.85;5.60;;;9.70;99.90;;;;;;5033897;28;20520;-72
2022/01/03 06:19:29;;;;;;;38.13;5.57;;;9.70;99.90;;;;;;5034215;28;20021;-71
2022/01/03 06:21:56;;;;;;;34.88;5.22;;;9.70;99.90;;;;;;5034111;28;20071;-69
2022/01/03 06:24:22;;;;;;;46.58;6.25;;;9.60;99.90;;;;;;5035044;28;20422;-71
2022/01/03 06:26:48;;;;;;;38.40;6.57;;;9.60;99.90;;;;;;5034801;28;20083;-71
2022/01/03 06:29:15;;;;;;;38.35;5.72;;;9.60;99.90;;;;;;5033952;28;20044;-72
2022/01/03 06:31:41;;;;;;;56.67;8.27;;;9.60;99.90;;;;;;5035312;28;20026;-73
2022/01/03 06:34:07;;;;;;;39.15;6.35;;;9.60;99.90;;;;;;5035221;28;20033;-73
2022/01/03 06:36:33;;;;;;;33.58;5.55;;;9.60;99.90;;;;;;5035249;28;20025;-72
2022/01/03 06:38:59;;;;;;;47.13;7.25;;;9.60;99.90;;;;;;5035276;28;20029;-71
2022/01/03 06:41:26;;;;;;;36.97;5.82;;;9.50;99.90;;;;;;5035182;28;20032;-72
2022/01/03 06:43:52;;;;;;;39.65;6.05;;;9.60;99.90;;;;;;5033761;28;20041;-72
2022/01/03 06:46:18;;;;;;;33.13;5.68;;;9.50;99.90;;;;;;5034585;28;20033;-74
2022/01/03 06:48:46;;;;;;;37.45;5.03;;;9.50;99.90;;;;;;5034607;28;20120;-70
2022/01/03 06:51:12;;;;;;;33.38;5.35;;;9.50;99.90;;;;;;5035241;28;20083;-72
2022/01/03 06:53:38;;;;;;;31.02;4.65;;;9.50;99.90;;;;;;5035000;28;20056;-70
2022/01/03 06:56:04;;;;;;;31.83;5.47;;;9.60;99.90;;;;;;5034947;28;20057;-70
2022/01/03 06:58:31;;;;;;;40.53;5.00;;;9.50;99.90;;;;;;5034831;28;20100;-71
2022/01/03 07:00:57;;;;;;;30.77;4.60;;;9.60;99.90;;;;;;5034658;28;20414;-70
2022/01/03 07:03:23;;;;;;;35.53;4.72;;;9.60;99.90;;;;;;5034744;28;20478;-69
2022/01/03 07:05:49;;;;;;;36.28;5.50;;;9.60;99.90;;;;;;5034948;28;20033;-70
2022/01/03 07:08:15;;;;;;;43.72;5.95;;;9.60;99.90;;;;;;5033275;28;20037;-73
2022/01/03 07:10:40;;;;;;;40.17;5.32;;;9.60;99.90;;;;;;5033259;28;20029;-73
2022/01/03 07:13:06;;;;;;;39.95;5.93;;;9.60;99.90;;;;;;5034552;28;20053;-72
2022/01/03 07:21:01;;;;;;;45.90;5.63;;;9.50;99.90;;;;;;5034387;28;20043;-70
2022/01/03 07:23:27;;;;;;;36.45;5.10;;;9.50;99.90;;;;;;5033974;28;20104;-71
2022/01/03 07:25:53;;;;;;;32.95;5.35;;;9.50;99.90;;;;;;5034283;28;20463;-69
2022/01/03 07:28:19;;;;;;;37.90;5.43;;;9.50;99.90;;;;;;5033812;28;20037;-70
2022/01/03 07:30:45;;;;;;;36.40;5.50;;;9.50;99.90;;;;;;5034341;28;20032;-68
2022/01/03 07:33:12;;;;;;;37.20;6.15;;;9.50;99.90;;;;;;5034285;28;20096;-70
2022/01/03 07:35:37;;;;;;;38.92;6.70;;;9.50;99.90;;;;;;5034119;28;20463;-69
2022/01/03 07:38:04;;;;;;;39.42;6.47;;;9.50;99.90;;;;;;5031669;28;20087;-70
2022/01/03 07:40:31;;;;;;;48.63;6.30;;;9.40;99.90;;;;;;5033923;28;20028;-74
2022/01/03 07:42:57;;;;;;;44.38;5.90;;;9.50;99.90;;;;;;5034236;28;20033;-71
2022/01/03 07:45:23;;;;;;;40.25;6.55;;;9.50;99.90;;;;;;5032552;28;20410;-73
2022/01/03 07:47:49;;;;;;;36.28;5.45;;;9.60;99.90;;;;;;5033827;28;20017;-71
2022/01/03 07:50:15;;;;;;;41.58;5.40;;;9.60;99.90;;;;;;5034034;28;20075;-72
2022/01/03 07:52:41;;;;;;;36.85;5.05;;;9.60;99.90;;;;;;5033458;28;20086;-69
2022/01/03 07:55:08;;;;;;;34.70;5.20;;;9.60;99.90;;;;;;5030861;28;20030;-71
2022/01/03 07:57:34;;;;;;;31.55;4.45;;;9.60;99.90;;;;;;5033020;28;20022;-72
2022/01/03 08:00:00;;;;;;;36.92;5.10;;;9.60;99.90;;;;;;5033078;28;20044;-70
2022/01/03 08:02:28;;;;;;;40.17;5.30;;;9.70;99.90;;;;;;5033720;28;20033;-71
2022/01/03 08:04:54;;;;;;;33.10;4.57;;;9.60;99.90;;;;;;5033402;28;20021;-70
2022/01/03 08:07:20;;;;;;;32.38;4.63;;;9.60;99.90;;;;;;5033052;28;20485;-72
2022/01/03 08:09:45;;;;;;;26.98;4.10;;;9.60;99.90;;;;;;5032957;28;20064;-71
2022/01/03 08:12:13;;;;;;;28.33;5.88;;;9.60;99.90;;;;;;5033033;28;20088;-68
2022/01/03 08:14:39;;;;;;;27.65;4.43;;;9.60;99.90;;;;;;5033391;28;20056;-70
2022/01/03 08:17:05;;;;;;;26.55;4.35;;;9.60;99.90;;;;;;5033116;28;20477;-71
2022/01/03 08:19:31;;;;;;;33.35;4.53;;;9.60;99.90;;;;;;5031630;28;20225;-73
2022/01/03 08:21:57;;;;;;;32.85;6.07;;;9.60;99.90;;;;;;5032937;28;20033;-71
2022/01/03 08:24:23;;;;;;;39.42;6.22;;;9.60;99.90;;;;;;5033045;28;20033;-73
2022/01/03 08:26:49;;;;;;;32.60;5.40;;;9.60;99.90;;;;;;5032790;28;20030;-69
2022/01/03 08:29:15;;;;;;;35.00;5.70;;;9.60;99.90;;;;;;5031783;28;20087;-70
2022/01/03 08:31:41;;;;;;;31.20;4.43;;;9.60;99.90;;;;;;5029981;28;20017;-70
2022/01/03 08:34:07;;;;;;;31.48;4.90;;;9.60;99.90;;;;;;5031398;28;20116;-73
2022/01/03 08:36:39;;;;;;;28.48;4.57;;;9.70;99.90;;;;;;5032407;28;20029;-69
2022/01/03 08:39:09;;;;;;;28.35;4.03;;;9.70;99.90;;;;;;5032800;28;20036;-73
2022/01/03 08:41:35;;;;;;;36.58;5.60;;;9.70;99.90;;;;;;5032378;28;20026;-73
2022/01/03 08:44:00;;;;;;;29.17;4.72;;;9.70;99.90;;;;;;5033143;28;20075;-71
2022/01/03 08:46:26;;;;;;;37.28;5.18;;;9.80;99.90;;;;;;5032384;28;20040;-69
2022/01/03 08:48:53;;;;;;;29.55;4.70;;;9.70;99.90;;;;;;5032589;28;20037;-70
2022/01/03 08:51:19;;;;;;;35.78;5.07;;;9.80;99.90;;;;;;5032150;28;20037;-69
2022/01/03 08:53:45;;;;;;;38.50;5.38;;;9.80;99.90;;;;;;5031205;28;20379;-69
2022/01/03 08:56:10;;;;;;;30.67;4.65;;;9.80;99.90;;;;;;5032438;28;20329;-70
2022/01/03 08:58:36;;;;;;;35.22;5.25;;;9.80;99.90;;;;;;5032490;28;20442;-70
2022/01/03 09:01:02;;;;;;;34.45;4.82;;;9.80;99.90;;;;;;5032283;28;20039;-74
2022/01/03 09:03:28;;;;;;;40.83;5.90;;;9.80;99.90;;;;;;5032412;28;20026;-74
2022/01/03 09:05:54;;;;;;;34.35;4.82;;;9.90;99.90;;;;;;5032279;28;20355;-74
2022/01/03 09:08:22;;;;;;;31.65;4.60;;;9.90;99.90;;;;;;5032420;28;20069;-69
2022/01/03 09:10:48;;;;;;;31.80;4.78;;;9.90;99.90;;;;;;5032433;28;20036;-69
2022/01/03 09:13:14;;;;;;;22.52;4.18;;;9.90;99.90;;;;;;5031950;28;20128;-72
2022/01/03 09:15:44;;;;;;;28.98;4.28;;;10.00;99.90;;;;;;5032524;28;20502;-71
2022/01/03 09:18:14;;;;;;;31.52;4.30;;;10.10;99.90;;;;;;5032491;28;20021;-72
2022/01/03 09:20:40;;;;;;;28.13;4.30;;;10.10;99.90;;;;;;5031774;28;20025;-71
2022/01/03 09:23:14;;;;;;;43.45;5.20;;;10.10;99.90;;;;;;5032199;28;20036;-71
2022/01/03 09:30:50;;;;;;;26.02;5.63;;;10.20;99.90;;;;;;5031967;28;20056;-72
2022/01/03 09:33:16;;;;;;;31.35;4.60;;;10.20;99.90;;;;;;5031968;28;20033;-72
2022/01/03 09:35:42;;;;;;;38.15;5.20;;;10.20;99.90;;;;;;5032079;28;20036;-73
2022/01/03 09:38:09;;;;;;;30.83;3.53;;;10.30;99.90;;;;;;5032246;28;20033;-72
2022/01/03 09:40:36;;;;;;;34.53;4.32;;;10.30;99.90;;;;;;5032344;28;20037;-73
2022/01/03 09:43:02;;;;;;;31.50;5.30;;;10.30;99.90;;;;;;5031594;28;20057;-71
2022/01/03 09:45:32;;;;;;;34.08;4.00;;;10.40;99.90;;;;;;5032301;28;20032;-69
2022/01/03 09:48:00;;;;;;;29.55;4.30;;;10.40;99.90;;;;;;5032111;28;20041;-70
2022/01/03 09:50:26;;;;;;;22.85;3.63;;;10.40;99.90;;;;;;5032094;28;20486;-72
2022/01/03 09:52:52;;;;;;;29.25;4.78;;;10.50;99.90;;;;;;5031991;28;20041;-72
2022/01/03 09:55:20;;;;;;;31.40;4.43;;;10.50;99.90;;;;;;5031660;28;20029;-74
2022/01/03 09:57:46;;;;;;;27.95;5.43;;;10.50;99.90;;;;;;5030598;28;20061;-73
2022/01/03 10:00:14;;;;;;;25.63;4.55;;;10.60;99.90;;;;;;5031985;28;20030;-73
2022/01/03 10:02:41;;;;;;;24.80;4.70;;;10.70;99.90;;;;;;5034120;28;20033;-68
2022/01/03 10:05:07;;;;;;;27.55;4.65;;;10.80;99.90;;;;;;5033967;28;20025;-72
2022/01/03 10:07:33;;;;;;;31.45;4.07;;;10.90;99.90;;;;;;5035695;28;20030;-73
2022/01/03 10:10:02;;;;;;;21.58;4.80;;;11.00;99.90;;;;;;5035665;28;20471;-71
2022/01/03 10:12:28;;;;;;;28.50;4.22;;;11.10;99.90;;;;;;5034033;28;20026;-72
2022/01/03 10:14:53;;;;;;;30.83;4.72;;;11.20;99.90;;;;;;5035736;28;20062;-73
2022/01/03 10:17:19;;;;;;;32.90;5.38;;;11.20;99.90;;;;;;5032949;28;20034;-73
2022/01/03 10:19:56;;;;;;;35.72;5.10;;;11.20;99.90;;;;;;5035227;28;20030;-71
2022/01/03 10:22:28;;;;;;;30.00;4.28;;;11.10;99.90;;;;;;5035429;28;20501;-72
2022/01/03 10:24:54;;;;;;;33.40;5.10;;;11.10;99.90;;;;;;5034695;28;20036;-69
2022/01/03 10:27:23;;;;;;;28.52;4.70;;;11.10;99.90;;;;;;5033507;28;20041;-70
2022/01/03 10:29:57;;;;;;;32.45;5.00;;;11.00;99.90;;;;;;5035109;28;20045;-70
2022/01/03 10:32:30;;;;;;;33.15;4.53;;;11.00;99.90;;;;;;5035209;28;20033;-70
2022/01/03 10:34:57;;;;;;;30.13;5.55;;;11.10;99.90;;;;;;5035458;28;20100;-70
2022/01/03 10:37:36;;;;;;;30.08;4.90;;;11.20;99.90;;;;;;5035019;28;20104;-70
2022/01/03 10:40:38;;;;;;;30.38;3.95;;;11.40;99.90;;;;;;5034559;28;20394;-70
2022/01/03 10:43:19;;;;;;;35.80;5.00;;;11.70;99.90;;;;;;4993433;28;20085;-71
2022/01/03 10:45:46;;;;;;;27.15;4.82;;;11.90;99.90;;;;;;5030885;28;20048;-70
2022/01/03 10:48:34;;;;;;;27.65;3.90;;;12.20;99.90;;;;;;5034962;28;20033;-69
2022/01/03 10:51:01;;;;;;;24.98;4.00;;;12.40;99.90;;;;;;5035150;28;20025;-72
2022/01/03 10:53:41;;;;;;;31.33;4.80;;;12.50;99.90;;;;;;5034984;28;20104;-70
2022/01/03 10:56:33;;;;;;;28.48;5.15;;;12.70;99.90;;;;;;5034730;28;20494;-72
2022/01/03 10:59:18;;;;;;;31.50;4.65;;;12.90;99.90;;;;;;5034654;28;20025;-71
2022/01/03 11:01:46;;;;;;;34.70;5.47;;;12.90;99.90;;;;;;5034429;28;20407;-71
2022/01/03 11:04:29;;;;;;;31.20;5.32;;;12.90;99.90;;;;;;5034913;28;20079;-72
2022/01/03 11:13:14;;;;;;;27.75;5.18;;;12.90;99.90;;;;;;5034153;28;20132;-71
2022/01/03 11:15:53;;;;;;;30.90;5.22;;;13.00;99.90;;;;;;5034504;28;20033;-73
2022/01/03 11:18:28;;;;;;;28.63;4.80;;;13.00;99.90;;;;;;5034781;28;20026;-72
2022/01/03 11:21:09;;;;;;;24.42;4.90;;;13.00;99.90;;;;;;5034341;28;20041;-69
2022/01/03 11:23:36;;;;;;;28.25;5.47;;;13.10;99.90;;;;;;5033175;28;20021;-73
2022/01/03 11:26:06;;;;;;;29.02;5.03;;;13.00;99.90;;;;;;5034432;28;20026;-70
2022/01/03 11:28:33;;;;;;;32.40;5.20;;;13.00;99.90;;;;;;5033843;28;20052;-70
2022/01/03 11:30:59;;;;;;;41.20;6.57;;;13.00;99.90;;;;;;5033997;28;20029;-69
2022/01/03 11:33:26;;;;;;;27.35;4.45;;;13.00;99.90;;;;;;5034298;28;20025;-68
2022/01/03 11:35:51;;;;;;;30.00;5.55;;;13.10;99.90;;;;;;5034061;28;20597;-72
2022/01/03 11:38:22;;;;;;;31.05;4.97;;;13.10;99.90;;;;;;5033756;28;20131;-73
2022/01/03 11:40:48;;;;;;;27.27;4.80;;;13.30;99.90;;;;;;5033967;28;20108;-70
2022/01/03 11:43:15;;;;;;;26.10;4.75;;;13.40;99.90;;;;;;5033947;28;20022;-70
2022/01/03 11:45:41;;;;;;;23.27;4.70;;;13.50;99.90;;;;;;5034009;28;20051;-69
2022/01/03 11:48:08;;;;;;;27.67;4.78;;;13.50;99.90;;;;;;5032379;28;20382;-71
2022/01/03 11:50:37;;;;;;;35.55;4.82;;;13.40;99.90;;;;;;5033636;28;20021;-71
2022/01/03 11:53:06;;;;;;;34.03;5.25;;;13.50;99.90;;;;;;5033649;28;20029;-69
2022/01/03 11:55:37;;;;;;;30.33;4.13;;;13.50;99.90;;;;;;5033691;28;20069;-73
2022/01/03 12:06:05;;;;;;;35.85;5.65;;;13.20;99.90;;;;;;5033538;28;20112;-69
2022/01/03 12:08:39;;;;;;;34.25;6.20;;;13.30;99.90;;;;;;5033399;28;20034;-70
2022/01/03 12:11:27;;;;;;;39.20;6.25;;;13.40;99.90;;;;;;5031984;28;20068;-70
2022/01/03 12:14:04;;;;;;;30.95;5.43;;;13.40;99.90;;;;;;5033233;28;20061;-70
2022/01/03 12:17:01;;;;;;;41.95;6.32;;;13.40;99.90;;;;;;5033374;28;20025;-70
2022/01/03 12:19:29;;;;;;;35.72;5.80;;;13.30;99.90;;;;;;5032970;28;20403;-70
2022/01/03 12:22:20;;;;;;;28.13;4.97;;;13.20;99.90;;;;;;5033421;28;20026;-69
2022/01/03 12:24:48;;;;;;;31.48;5.70;;;13.10;99.90;;;;;;5026699;28;20048;-69
2022/01/03 12:27:14;;;;;;;35.67;5.53;;;13.10;99.90;;;;;;5033102;28;20032;-69
2022/01/03 12:29:58;;;;;;;39.63;5.45;;;13.00;99.90;;;;;;5033141;28;20038;-69
2022/01/03 12:32:45;;;;;;;30.73;4.90;;;13.00;99.90;;;;;;5032616;28;20079;-69
2022/01/03 12:35:17;;;;;;;41.55;5.68;;;12.80;99.90;;;;;;5030456;28;20018;-69
2022/01/03 12:37:50;;;;;;;29.75;5.05;;;12.80;99.90;;;;;;5032599;28;20049;-69
2022/01/03 12:40:18;;;;;;;29.25;5.50;;;12.80;99.90;;;;;;5031242;28;20037;-68
2022/01/03 12:42:50;;;;;;;32.92;4.78;;;12.70;99.90;;;;;;5032801;28;20033;-68
2022/01/03 12:45:42;;;;;;;32.05;5.25;;;12.80;99.90;;;;;;5032866;28;20119;-68
2022/01/03 12:48:08;;;;;;;26.70;4.28;;;12.90;99.90;;;;;;5032558;28;20029;-68
2022/01/03 12:50:36;;;;;;;32.03;5.88;;;12.90;99.90;;;;;;5032946;28;20024;-69
2022/01/03 12:53:03;;;;;;;27.67;4.72;;;12.80;99.90;;;;;;5032164;28;20024;-70
2022/01/03 12:55:37;;;;;;;35.25;5.10;;;12.70;99.90;;;;;;5032180;28;20029;-70
2022/01/03 12:58:26;;;;;;;26.33;3.80;;;12.80;99.90;;;;;;5031513;28;20182;-70
2022/01/03 13:00:58;;;;;;;24.55;4.40;;;12.80;99.90;;;;;;5030053;28;20054;-70
2022/01/03 13:03:27;;;;;;;23.17;4.43;;;12.70;99.90;;;;;;5032279;28;20467;-70
2022/01/03 13:06:13;;;;;;;29.23;4.88;;;12.70;99.90;;;;;;5032517;28;20485;-70
2022/01/03 13:08:58;;;;;;;23.17;3.78;;;12.70;99.90;;;;;;5032595;28;20033;-68
2022/01/03 13:11:27;;;;;;;24.63;4.13;;;12.70;99.90;;;;;;5031984;28;20049;-69
2022/01/03 13:13:55;;;;;;;30.80;4.50;;;12.60;99.90;;;;;;5031878;28;20525;-69
2022/01/03 13:16:36;;;;;;;26.17;5.15;;;12.70;99.90;;;;;;5032537;28;20029;-70